sensor_id;sensor_type;location;lat;lon;timestamp;pressure;altitude;pressure_sealevel;temperature;humidity
65758;BME280;52495;52.208;5.158;2023-04-02T00:02:29;101215.06;;;7.10;97.09
65758;BME280;52495;52.208;5.158;2023-04-02T00:05:22;101210.78;;;7.09;96.50
65758;BME280;52495;52.208;5.158;2023-04-02T00:07:56;101216.75;;;7.08;95.63
65758;BME280;52495;52.208;5.158;2023-04-02T00:10:26;101217.59;;;7.03;95.36
65758;BME280;52495;52.208;5.158;2023-04-02T00:13:04;101220.13;;;6.96;96.00
65758;BME280;52495;52.208;5.158;2023-04-02T00:15:33;101218.38;;;6.88;96.41
65758;BME280;52495;52.208;5.158;2023-04-02T00:18:00;101217.53;;;6.86;96.18
65758;BME280;52495;52.208;5.158;2023-04-02T00:20:30;101227.78;;;6.82;97.46
65758;BME280;52495;52.208;5.158;2023-04-02T00:22:58;101231.25;;;6.95;96.01
65758;BME280;52495;52.208;5.158;2023-04-02T00:25:26;101232.09;;;6.88;96.26
65758;BME280;52495;52.208;5.158;2023-04-02T00:27:53;101231.22;;;6.92;95.24
65758;BME280;52495;52.208;5.158;2023-04-02T00:30:22;101244.91;;;6.85;95.39
65758;BME280;52495;52.208;5.158;2023-04-02T00:32:50;101248.31;;;6.84;96.49
65758;BME280;52495;52.208;5.158;2023-04-02T00:35:20;101261.13;;;6.81;96.95
65758;BME280;52495;52.208;5.158;2023-04-02T00:37:48;101261.19;;;6.92;95.32
65758;BME280;52495;52.208;5.158;2023-04-02T00:40:19;101261.97;;;6.78;96.58
65758;BME280;52495;52.208;5.158;2023-04-02T00:42:48;101263.75;;;6.87;94.72
65758;BME280;52495;52.208;5.158;2023-04-02T00:45:21;101267.97;;;6.83;93.89
65758;BME280;52495;52.208;5.158;2023-04-02T00:47:49;101269.63;;;6.72;94.64
65758;BME280;52495;52.208;5.158;2023-04-02T00:50:24;101273.13;;;6.80;94.46
65758;BME280;52495;52.208;5.158;2023-04-02T00:52:55;101290.19;;;6.71;94.52
65758;BME280;52495;52.208;5.158;2023-04-02T00:55:26;101285.03;;;6.66;95.11
65758;BME280;52495;52.208;5.158;2023-04-02T00:57:54;101291.00;;;6.68;95.48
65758;BME280;52495;52.208;5.158;2023-04-02T01:00:28;101293.56;;;6.68;94.89
65758;BME280;52495;52.208;5.158;2023-04-02T01:03:26;101299.59;;;6.75;95.38
65758;BME280;52495;52.208;5.158;2023-04-02T01:06:00;101308.97;;;6.71;94.23
65758;BME280;52495;52.208;5.158;2023-04-02T01:08:39;101308.94;;;6.68;94.47
65758;BME280;52495;52.208;5.158;2023-04-02T01:11:19;101314.09;;;6.66;94.59
65758;BME280;52495;52.208;5.158;2023-04-02T01:13:55;101329.47;;;6.68;94.16
65758;BME280;52495;52.208;5.158;2023-04-02T01:16:33;101329.50;;;6.70;94.12
65758;BME280;52495;52.208;5.158;2023-04-02T01:19:14;101320.00;;;6.59;94.13
65758;BME280;52495;52.208;5.158;2023-04-02T01:21:54;101324.34;;;6.65;93.02
65758;BME280;52495;52.208;5.158;2023-04-02T01:24:25;101335.50;;;6.68;93.00
65758;BME280;52495;52.208;5.158;2023-04-02T01:26:56;101344.88;;;6.68;92.12
65758;BME280;52495;52.208;5.158;2023-04-02T01:29:27;101338.03;;;6.64;92.80
65758;BME280;52495;52.208;5.158;2023-04-02T01:31:59;101343.13;;;6.62;92.69
65758;BME280;52495;52.208;5.158;2023-04-02T01:34:28;101346.44;;;6.46;93.57
65758;BME280;52495;52.208;5.158;2023-04-02T01:37:05;101349.94;;;6.60;92.06
65758;BME280;52495;52.208;5.158;2023-04-02T01:39:42;101349.91;;;6.51;92.28
65758;BME280;52495;52.208;5.158;2023-04-02T01:42:18;101361.91;;;6.57;91.75
65758;BME280;52495;52.208;5.158;2023-04-02T01:44:49;101366.97;;;6.50;93.14
65758;BME280;52495;52.208;5.158;2023-04-02T01:47:18;101366.19;;;6.58;92.34
65758;BME280;52495;52.208;5.158;2023-04-02T01:49:46;101380.75;;;6.57;91.26
65758;BME280;52495;52.208;5.158;2023-04-02T01:52:16;101382.41;;;6.52;91.55
65758;BME280;52495;52.208;5.158;2023-04-02T01:54:45;101383.22;;;6.48;91.52
65758;BME280;52495;52.208;5.158;2023-04-02T01:57:13;101398.59;;;6.46;90.76
65758;BME280;52495;52.208;5.158;2023-04-02T01:59:42;101391.75;;;6.45;90.48
65758;BME280;52495;52.208;5.158;2023-04-02T02:02:12;101399.34;;;6.36;91.16
65758;BME280;52495;52.208;5.158;2023-04-02T02:04:41;101399.34;;;6.36;91.58
65758;BME280;52495;52.208;5.158;2023-04-02T02:07:13;101406.94;;;6.25;91.33
65758;BME280;52495;52.208;5.158;2023-04-02T02:09:43;101415.47;;;6.24;92.98
65758;BME280;52495;52.208;5.158;2023-04-02T02:12:12;101418.97;;;6.31;90.94
65758;BME280;52495;52.208;5.158;2023-04-02T02:14:45;101419.72;;;6.19;91.71
65758;BME280;52495;52.208;5.158;2023-04-02T02:17:15;101425.59;;;6.12;91.19
65758;BME280;52495;52.208;5.158;2023-04-02T02:19:44;101424.81;;;6.17;90.86
65758;BME280;52495;52.208;5.158;2023-04-02T02:22:18;101432.50;;;6.17;91.83
65758;BME280;52495;52.208;5.158;2023-04-02T02:24:47;101446.13;;;6.12;91.02
65758;BME280;52495;52.208;5.158;2023-04-02T02:27:43;101446.03;;;6.04;91.21
65758;BME280;52495;52.208;5.158;2023-04-02T02:30:15;101458.75;;;5.98;91.55
65758;BME280;52495;52.208;5.158;2023-04-02T02:32:50;101455.50;;;6.08;90.81
65758;BME280;52495;52.208;5.158;2023-04-02T02:35:21;101458.84;;;6.04;89.75
65758;BME280;52495;52.208;5.158;2023-04-02T02:37:55;101464.75;;;5.98;90.79
65758;BME280;52495;52.208;5.158;2023-04-02T02:40:27;101468.03;;;5.89;90.31
65758;BME280;52495;52.208;5.158;2023-04-02T02:42:58;101478.34;;;5.94;91.02
65758;BME280;52495;52.208;5.158;2023-04-02T02:45:31;101478.31;;;5.91;89.84
65758;BME280;52495;52.208;5.158;2023-04-02T02:48:02;101483.41;;;5.88;90.80
65758;BME280;52495;52.208;5.158;2023-04-02T02:50:32;101487.63;;;5.84;91.06
65758;BME280;52495;52.208;5.158;2023-04-02T02:53:14;101486.78;;;5.84;89.91
65758;BME280;52495;52.208;5.158;2023-04-02T02:55:41;101500.53;;;5.90;89.48
65758;BME280;52495;52.208;5.158;2023-04-02T02:58:17;101498.81;;;5.89;89.59
65758;BME280;52495;52.208;5.158;2023-04-02T03:00:56;101508.06;;;5.81;88.75
65758;BME280;52495;52.208;5.158;2023-04-02T03:03:26;101504.63;;;5.76;90.34
65758;BME280;52495;52.208;5.158;2023-04-02T03:06:00;101508.75;;;5.66;91.00
65758;BME280;52495;52.208;5.158;2023-04-02T03:08:32;101513.09;;;5.73;90.82
65758;BME280;52495;52.208;5.158;2023-04-02T03:11:06;101520.00;;;5.76;90.38
65758;BME280;52495;52.208;5.158;2023-04-02T03:13:37;101527.78;;;5.84;89.54
65758;BME280;52495;52.208;5.158;2023-04-02T03:16:10;101534.59;;;5.82;89.73
65758;BME280;52495;52.208;5.158;2023-04-02T03:18:45;101541.34;;;5.76;89.14
65758;BME280;52495;52.208;5.158;2023-04-02T03:21:26;101548.91;;;5.67;89.68
65758;BME280;52495;52.208;5.158;2023-04-02T03:23:57;101553.25;;;5.71;87.92
65758;BME280;52495;52.208;5.158;2023-04-02T03:26:30;101557.44;;;5.68;88.18
65758;BME280;52495;52.208;5.158;2023-04-02T03:29:03;101565.00;;;5.60;88.81
65758;BME280;52495;52.208;5.158;2023-04-02T03:31:36;101576.84;;;5.52;89.34
65758;BME280;52495;52.208;5.158;2023-04-02T03:34:10;101580.97;;;5.43;89.06
65758;BME280;52495;52.208;5.158;2023-04-02T03:36:41;101585.25;;;5.44;89.67
65758;BME280;52495;52.208;5.158;2023-04-02T03:39:19;101590.50;;;5.52;89.65
65758;BME280;52495;52.208;5.158;2023-04-02T03:41:53;101591.28;;;5.46;88.94
65758;BME280;52495;52.208;5.158;2023-04-02T03:44:26;101593.97;;;5.56;89.31
65758;BME280;52495;52.208;5.158;2023-04-02T03:47:00;101605.03;;;5.52;88.80
65758;BME280;52495;52.208;5.158;2023-04-02T03:49:35;101601.56;;;5.50;89.40
65758;BME280;52495;52.208;5.158;2023-04-02T03:52:08;101608.25;;;5.40;88.86
65758;BME280;52495;52.208;5.158;2023-04-02T03:54:36;101618.59;;;5.47;87.29
65758;BME280;52495;52.208;5.158;2023-04-02T03:57:05;101628.88;;;5.49;86.09
65758;BME280;52495;52.208;5.158;2023-04-02T03:59:40;101630.47;;;5.42;87.32
65758;BME280;52495;52.208;5.158;2023-04-02T04:02:17;101640.69;;;5.41;86.88
65758;BME280;52495;52.208;5.158;2023-04-02T04:04:47;101639.72;;;5.34;87.03
65758;BME280;52495;52.208;5.158;2023-04-02T04:07:20;101652.53;;;5.34;87.10
65758;BME280;52495;52.208;5.158;2023-04-02T04:09:54;101654.16;;;5.30;86.13
65758;BME280;52495;52.208;5.158;2023-04-02T04:12:26;101654.84;;;5.22;85.81
65758;BME280;52495;52.208;5.158;2023-04-02T04:14:58;101662.59;;;5.23;87.44
65758;BME280;52495;52.208;5.158;2023-04-02T04:17:31;101662.84;;;5.39;84.73
65758;BME280;52495;52.208;5.158;2023-04-02T04:20:14;101666.09;;;5.28;85.62
65758;BME280;52495;52.208;5.158;2023-04-02T04:22:47;101678.72;;;5.19;86.04
65758;BME280;52495;52.208;5.158;2023-04-02T04:25:25;101683.81;;;5.18;85.36
65758;BME280;52495;52.208;5.158;2023-04-02T04:28:02;101688.81;;;5.13;85.80
65758;BME280;52495;52.208;5.158;2023-04-02T04:30:43;101699.06;;;5.11;86.81
65758;BME280;52495;52.208;5.158;2023-04-02T04:33:16;101692.25;;;5.13;86.49
65758;BME280;52495;52.208;5.158;2023-04-02T04:35:52;101709.38;;;5.16;85.53
65758;BME280;52495;52.208;5.158;2023-04-02T04:38:28;101712.03;;;5.21;85.43
65758;BME280;52495;52.208;5.158;2023-04-02T04:41:02;101715.09;;;5.04;85.37
65758;BME280;52495;52.208;5.158;2023-04-02T04:43:39;101734.03;;;5.11;85.96
65758;BME280;52495;52.208;5.158;2023-04-02T04:46:12;101742.63;;;5.14;85.85
65758;BME280;52495;52.208;5.158;2023-04-02T04:48:49;101738.88;;;4.97;84.61
65758;BME280;52495;52.208;5.158;2023-04-02T04:51:24;101743.09;;;4.95;84.70
65758;BME280;52495;52.208;5.158;2023-04-02T04:53:54;101744.84;;;4.97;81.85
65758;BME280;52495;52.208;5.158;2023-04-02T04:56:27;101756.72;;;4.94;81.75
65758;BME280;52495;52.208;5.158;2023-04-02T04:59:04;101762.50;;;4.85;81.62
65758;BME280;52495;52.208;5.158;2023-04-02T05:01:42;101765.47;;;4.65;82.62
65758;BME280;52495;52.208;5.158;2023-04-02T05:04:15;101774.81;;;4.63;83.10
65758;BME280;52495;52.208;5.158;2023-04-02T05:06:52;101789.31;;;4.64;81.84
65758;BME280;52495;52.208;5.158;2023-04-02T05:09:26;101790.03;;;4.57;80.54
65758;BME280;52495;52.208;5.158;2023-04-02T05:12:03;101797.63;;;4.54;79.51
65758;BME280;52495;52.208;5.158;2023-04-02T05:14:35;101801.47;;;4.36;80.20
65758;BME280;52495;52.208;5.158;2023-04-02T05:17:06;101806.56;;;4.35;81.02
65758;BME280;52495;52.208;5.158;2023-04-02T05:19:38;101805.41;;;4.23;80.85
65758;BME280;52495;52.208;5.158;2023-04-02T05:22:19;101816.56;;;4.25;80.21
65758;BME280;52495;52.208;5.158;2023-04-02T05:24:54;101817.91;;;4.11;80.96
65758;BME280;52495;52.208;5.158;2023-04-02T05:27:28;101818.63;;;4.05;80.14
65758;BME280;52495;52.208;5.158;2023-04-02T05:30:04;101826.03;;;3.96;81.30
65758;BME280;52495;52.208;5.158;2023-04-02T05:32:35;101820.91;;;3.96;80.07
65758;BME280;52495;52.208;5.158;2023-04-02T05:35:14;101836.88;;;3.87;81.11
65758;BME280;52495;52.208;5.158;2023-04-02T05:37:44;101840.19;;;3.83;81.03
65758;BME280;52495;52.208;5.158;2023-04-02T05:40:14;101849.19;;;3.70;81.72
65758;BME280;52495;52.208;5.158;2023-04-02T05:42:48;101859.56;;;3.76;81.26
65758;BME280;52495;52.208;5.158;2023-04-02T05:45:27;101859.28;;;3.66;81.71
65758;BME280;52495;52.208;5.158;2023-04-02T05:47:59;101871.38;;;3.71;81.26
65758;BME280;52495;52.208;5.158;2023-04-02T05:50:39;101873.66;;;3.62;81.67
65758;BME280;52495;52.208;5.158;2023-04-02T05:53:18;101885.72;;;3.68;81.52
65758;BME280;52495;52.208;5.158;2023-04-02T05:55:54;101893.91;;;3.56;82.33
65758;BME280;52495;52.208;5.158;2023-04-02T05:58:27;101901.75;;;3.62;81.70
65758;BME280;52495;52.208;5.158;2023-04-02T06:01:06;101906.81;;;3.60;82.54
65758;BME280;52495;52.208;5.158;2023-04-02T06:03:44;101915.53;;;3.69;81.35
65758;BME280;52495;52.208;5.158;2023-04-02T06:06:20;101915.28;;;3.59;81.45
65758;BME280;52495;52.208;5.158;2023-04-02T06:08:56;101923.88;;;3.61;81.24
65758;BME280;52495;52.208;5.158;2023-04-02T06:11:27;101927.34;;;3.63;81.01
65758;BME280;52495;52.208;5.158;2023-04-02T06:13:57;101941.75;;;3.61;81.41
65758;BME280;52495;52.208;5.158;2023-04-02T06:16:26;101955.38;;;3.62;80.60
65758;BME280;52495;52.208;5.158;2023-04-02T06:18:55;101951.78;;;3.55;81.10
65758;BME280;52495;52.208;5.158;2023-04-02T06:21:22;101961.81;;;3.49;81.49
65758;BME280;52495;52.208;5.158;2023-04-02T06:23:54;101966.94;;;3.51;81.22
65758;BME280;52495;52.208;5.158;2023-04-02T06:26:26;101966.94;;;3.51;81.63
65758;BME280;52495;52.208;5.158;2023-04-02T06:28:59;101980.34;;;3.43;81.96
65758;BME280;52495;52.208;5.158;2023-04-02T06:31:33;101983.91;;;3.48;81.87
65758;BME280;52495;52.208;5.158;2023-04-02T06:34:05;101985.91;;;3.59;81.68
65758;BME280;52495;52.208;5.158;2023-04-02T06:36:38;101997.28;;;3.69;80.27
65758;BME280;52495;52.208;5.158;2023-04-02T06:39:16;101998.06;;;3.66;79.46
65758;BME280;52495;52.208;5.158;2023-04-02T06:41:44;102003.72;;;3.56;80.13
65758;BME280;52495;52.208;5.158;2023-04-02T06:44:34;102005.38;;;3.55;80.29
65758;BME280;52495;52.208;5.158;2023-04-02T06:47:31;102013.50;;;3.42;82.02
65758;BME280;52495;52.208;5.158;2023-04-02T06:50:05;102023.97;;;3.51;81.09
65758;BME280;52495;52.208;5.158;2023-04-02T06:52:38;102032.31;;;3.45;82.18
65758;BME280;52495;52.208;5.158;2023-04-02T06:55:29;102028.34;;;3.54;81.42
65758;BME280;52495;52.208;5.158;2023-04-02T06:57:58;102030.66;;;3.46;81.60
65758;BME280;52495;52.208;5.158;2023-04-02T07:00:31;102046.16;;;3.52;81.62
65758;BME280;52495;52.208;5.158;2023-04-02T07:03:05;102042.59;;;3.47;82.06
65758;BME280;52495;52.208;5.158;2023-04-02T07:05:32;102047.47;;;3.39;82.76
65758;BME280;52495;52.208;5.158;2023-04-02T07:07:59;102055.16;;;3.41;83.52
65758;BME280;52495;52.208;5.158;2023-04-02T07:10:27;102062.59;;;3.34;83.02
65758;BME280;52495;52.208;5.158;2023-04-02T07:12:54;102056.84;;;3.40;83.85
65758;BME280;52495;52.208;5.158;2023-04-02T07:15:22;102064.09;;;3.54;82.96
65758;BME280;52495;52.208;5.158;2023-04-02T07:17:50;102065.13;;;3.60;83.49
65758;BME280;52495;52.208;5.158;2023-04-02T07:20:25;102073.31;;;3.77;81.74
65758;BME280;52495;52.208;5.158;2023-04-02T07:22:53;102082.56;;;3.74;81.68
65758;BME280;52495;52.208;5.158;2023-04-02T07:25:20;102095.22;;;3.69;81.98
65758;BME280;52495;52.208;5.158;2023-04-02T07:27:49;102094.31;;;3.69;81.58
65758;BME280;52495;52.208;5.158;2023-04-02T07:30:16;102100.59;;;3.78;80.61
65758;BME280;52495;52.208;5.158;2023-04-02T07:32:44;102101.34;;;3.74;80.83
65758;BME280;52495;52.208;5.158;2023-04-02T07:35:11;102116.00;;;3.80;79.92
65758;BME280;52495;52.208;5.158;2023-04-02T07:37:38;102110.78;;;3.77;79.86
65758;BME280;52495;52.208;5.158;2023-04-02T07:40:08;102117.38;;;3.70;79.15
65758;BME280;52495;52.208;5.158;2023-04-02T07:42:41;102123.25;;;3.68;79.51
65758;BME280;52495;52.208;5.158;2023-04-02T07:45:10;102128.78;;;3.54;79.82
65758;BME280;52495;52.208;5.158;2023-04-02T07:47:37;102135.59;;;3.54;79.84
65758;BME280;52495;52.208;5.158;2023-04-02T07:50:05;102137.09;;;3.48;80.02
65758;BME280;52495;52.208;5.158;2023-04-02T07:52:32;102143.94;;;3.49;79.73
65758;BME280;52495;52.208;5.158;2023-04-02T07:54:59;102150.66;;;3.46;80.38
65758;BME280;52495;52.208;5.158;2023-04-02T07:57:27;102147.84;;;3.38;81.68
65758;BME280;52495;52.208;5.158;2023-04-02T07:59:53;102149.16;;;3.53;80.33
65758;BME280;52495;52.208;5.158;2023-04-02T08:02:22;102148.50;;;3.58;79.37
65758;BME280;52495;52.208;5.158;2023-04-02T08:04:51;102157.56;;;3.76;78.68
65758;BME280;52495;52.208;5.158;2023-04-02T08:07:18;102161.34;;;3.87;77.83
65758;BME280;52495;52.208;5.158;2023-04-02T08:09:45;102162.91;;;3.82;77.95
65758;BME280;52495;52.208;5.158;2023-04-02T08:12:12;102162.13;;;3.85;76.87
65758;BME280;52495;52.208;5.158;2023-04-02T08:14:40;102169.56;;;3.78;77.28
65758;BME280;52495;52.208;5.158;2023-04-02T08:17:07;102173.72;;;3.75;76.53
65758;BME280;52495;52.208;5.158;2023-04-02T08:19:35;102187.94;;;3.67;76.62
65758;BME280;52495;52.208;5.158;2023-04-02T08:22:02;102194.56;;;3.61;76.73
65758;BME280;52495;52.208;5.158;2023-04-02T08:24:29;102188.50;;;3.58;77.05
65758;BME280;52495;52.208;5.158;2023-04-02T08:26:56;102196.16;;;3.58;77.21
65758;BME280;52495;52.208;5.158;2023-04-02T08:29:23;102199.78;;;3.64;76.99
65758;BME280;52495;52.208;5.158;2023-04-02T08:31:50;102208.41;;;3.68;77.50
65758;BME280;52495;52.208;5.158;2023-04-02T08:34:17;102203.00;;;3.85;75.51
65758;BME280;52495;52.208;5.158;2023-04-02T08:36:45;102218.22;;;3.82;75.25
65758;BME280;52495;52.208;5.158;2023-04-02T08:39:12;102219.81;;;3.78;75.61
65758;BME280;52495;52.208;5.158;2023-04-02T08:41:43;102234.34;;;3.80;75.44
65758;BME280;52495;52.208;5.158;2023-04-02T08:44:24;102219.09;;;3.82;74.63
65758;BME280;52495;52.208;5.158;2023-04-02T08:46:59;102232.56;;;3.78;75.82
65758;BME280;52495;52.208;5.158;2023-04-02T08:49:30;102222.09;;;3.96;74.01
65758;BME280;52495;52.208;5.158;2023-04-02T08:51:59;102227.31;;;3.99;74.20
65758;BME280;52495;52.208;5.158;2023-04-02T08:54:28;102236.34;;;3.89;76.09
65758;BME280;52495;52.208;5.158;2023-04-02T08:56:59;102238.59;;;4.06;74.73
65758;BME280;52495;52.208;5.158;2023-04-02T08:59:31;102246.97;;;4.29;73.07
65758;BME280;52495;52.208;5.158;2023-04-02T09:02:05;102247.63;;;4.22;73.02
65758;BME280;52495;52.208;5.158;2023-04-02T09:04:39;102260.34;;;4.20;74.40
65758;BME280;52495;52.208;5.158;2023-04-02T09:07:12;102261.63;;;4.33;72.39
65758;BME280;52495;52.208;5.158;2023-04-02T09:09:39;102263.50;;;4.39;72.08
65758;BME280;52495;52.208;5.158;2023-04-02T09:12:16;102262.88;;;4.46;72.40
65758;BME280;52495;52.208;5.158;2023-04-02T09:14:45;102257.97;;;4.52;72.62
65758;BME280;52495;52.208;5.158;2023-04-02T09:17:20;102264.59;;;4.75;70.22
65758;BME280;52495;52.208;5.158;2023-04-02T09:19:52;102273.09;;;4.74;72.69
65758;BME280;52495;52.208;5.158;2023-04-02T09:22:23;102279.81;;;4.99;71.11
65758;BME280;52495;52.208;5.158;2023-04-02T09:24:52;102283.03;;;5.22;67.45
65758;BME280;52495;52.208;5.158;2023-04-02T09:27:21;102285.66;;;5.25;69.53
65758;BME280;52495;52.208;5.158;2023-04-02T09:29:50;102277.41;;;5.36;69.07
65758;BME280;52495;52.208;5.158;2023-04-02T09:32:36;102280.75;;;5.64;68.07
65758;BME280;52495;52.208;5.158;2023-04-02T09:35:09;102287.84;;;5.75;67.50
65758;BME280;52495;52.208;5.158;2023-04-02T09:37:38;102292.28;;;5.81;68.14
65758;BME280;52495;52.208;5.158;2023-04-02T09:40:24;102286.97;;;6.05;66.29
65758;BME280;52495;52.208;5.158;2023-04-02T09:43:04;102297.47;;;6.16;66.38
65758;BME280;52495;52.208;5.158;2023-04-02T09:45:32;102297.41;;;6.13;66.62
65758;BME280;52495;52.208;5.158;2023-04-02T09:47:59;102301.53;;;6.08;65.80
65758;BME280;52495;52.208;5.158;2023-04-02T09:50:29;102302.22;;;6.01;65.15
65758;BME280;52495;52.208;5.158;2023-04-02T09:52:59;102303.91;;;6.00;66.62
65758;BME280;52495;52.208;5.158;2023-04-02T09:55:42;102312.09;;;6.20;66.45
65758;BME280;52495;52.208;5.158;2023-04-02T09:58:14;102316.66;;;6.32;66.02
65758;BME280;52495;52.208;5.158;2023-04-02T10:00:49;102318.16;;;6.24;65.39
65758;BME280;52495;52.208;5.158;2023-04-02T10:03:22;102320.63;;;6.19;64.26
65758;BME280;52495;52.208;5.158;2023-04-02T10:06:04;102323.25;;;6.21;64.47
65758;BME280;52495;52.208;5.158;2023-04-02T10:08:33;102319.13;;;6.28;64.68
65758;BME280;52495;52.208;5.158;2023-04-02T10:11:02;102320.81;;;6.27;64.71
65758;BME280;52495;52.208;5.158;2023-04-02T10:13:33;102320.16;;;6.34;65.54
65758;BME280;52495;52.208;5.158;2023-04-02T10:16:04;102316.78;;;6.37;64.24
65758;BME280;52495;52.208;5.158;2023-04-02T10:18:39;102320.25;;;6.39;64.98
65758;BME280;52495;52.208;5.158;2023-04-02T10:21:09;102340.75;;;6.37;63.75
65758;BME280;52495;52.208;5.158;2023-04-02T10:23:39;102340.09;;;6.46;64.68
65758;BME280;52495;52.208;5.158;2023-04-02T10:26:22;102349.81;;;6.60;65.30
65758;BME280;52495;52.208;5.158;2023-04-02T10:29:19;102357.63;;;6.64;65.55
65758;BME280;52495;52.208;5.158;2023-04-02T10:31:55;102355.47;;;6.81;63.36
65758;BME280;52495;52.208;5.158;2023-04-02T10:34:30;102364.75;;;6.76;63.76
65758;BME280;52495;52.208;5.158;2023-04-02T10:37:07;102350.66;;;6.59;63.89
65758;BME280;52495;52.208;5.158;2023-04-02T10:39:42;102358.38;;;6.60;66.26
65758;BME280;52495;52.208;5.158;2023-04-02T10:42:16;102341.00;;;6.85;64.26
65758;BME280;52495;52.208;5.158;2023-04-02T10:44:51;102349.88;;;6.99;61.66
65758;BME280;52495;52.208;5.158;2023-04-02T10:47:31;102366.88;;;6.94;62.87
65758;BME280;52495;52.208;5.158;2023-04-02T10:50:13;102361.88;;;7.01;62.01
65758;BME280;52495;52.208;5.158;2023-04-02T10:52:48;102370.50;;;7.04;62.76
65758;BME280;52495;52.208;5.158;2023-04-02T10:55:22;102364.75;;;7.14;61.64
65758;BME280;52495;52.208;5.158;2023-04-02T10:57:52;102373.38;;;7.17;62.57
65758;BME280;52495;52.208;5.158;2023-04-02T11:00:24;102370.00;;;7.21;61.51
65758;BME280;52495;52.208;5.158;2023-04-02T11:02:55;102364.19;;;7.29;60.60
65758;BME280;52495;52.208;5.158;2023-04-02T11:05:32;102368.81;;;7.44;60.47
65758;BME280;52495;52.208;5.158;2023-04-02T11:08:03;102363.69;;;7.46;60.74
65758;BME280;52495;52.208;5.158;2023-04-02T11:10:37;102371.53;;;7.54;62.10
65758;BME280;52495;52.208;5.158;2023-04-02T11:13:12;102366.84;;;7.77;61.18
65758;BME280;52495;52.208;5.158;2023-04-02T11:15:41;102370.44;;;7.84;60.81
65758;BME280;52495;52.208;5.158;2023-04-02T11:18:20;102383.31;;;7.87;61.93
65758;BME280;52495;52.208;5.158;2023-04-02T11:20:59;102384.22;;;7.87;61.09
65758;BME280;52495;52.208;5.158;2023-04-02T11:23:32;102387.00;;;8.00;60.94
65758;BME280;52495;52.208;5.158;2023-04-02T11:26:38;102380.47;;;8.17;58.88
65758;BME280;52495;52.208;5.158;2023-04-02T11:29:24;102396.78;;;8.19;59.47
65758;BME280;52495;52.208;5.158;2023-04-02T11:32:26;102404.59;;;8.24;58.73
65758;BME280;52495;52.208;5.158;2023-04-02T11:35:00;102411.47;;;8.25;58.93
65758;BME280;52495;52.208;5.158;2023-04-02T11:37:36;102399.56;;;8.32;60.18
65758;BME280;52495;52.208;5.158;2023-04-02T11:40:43;102398.09;;;8.45;58.78
65758;BME280;52495;52.208;5.158;2023-04-02T11:43:47;102406.19;;;8.67;57.59
65758;BME280;52495;52.208;5.158;2023-04-02T11:46:43;102425.78;;;8.58;58.14
65758;BME280;52495;52.208;5.158;2023-04-02T11:49:39;102421.66;;;8.67;57.89
65758;BME280;52495;52.208;5.158;2023-04-02T11:52:24;102423.50;;;8.75;58.08
65758;BME280;52495;52.208;5.158;2023-04-02T11:54:58;102423.56;;;8.78;59.02
65758;BME280;52495;52.208;5.158;2023-04-02T11:57:50;102415.22;;;8.95;57.31
65758;BME280;52495;52.208;5.158;2023-04-02T12:01:01;102420.38;;;8.95;57.69
65758;BME280;52495;52.208;5.158;2023-04-02T12:03:56;102431.06;;;9.21;54.70
65758;BME280;52495;52.208;5.158;2023-04-02T12:06:35;102429.06;;;9.03;54.57
65758;BME280;52495;52.208;5.158;2023-04-02T12:09:12;102426.44;;;8.99;55.18
65758;BME280;52495;52.208;5.158;2023-04-02T12:11:44;102435.28;;;9.16;55.21
65758;BME280;52495;52.208;5.158;2023-04-02T12:14:42;102436.13;;;9.14;54.83
65758;BME280;52495;52.208;5.158;2023-04-02T12:17:20;102429.34;;;9.20;54.92
65758;BME280;52495;52.208;5.158;2023-04-02T12:19:52;102429.59;;;9.40;53.18
65758;BME280;52495;52.208;5.158;2023-04-02T12:22:22;102420.22;;;9.47;53.44
65758;BME280;52495;52.208;5.158;2023-04-02T12:24:50;102430.44;;;9.38;54.96
65758;BME280;52495;52.208;5.158;2023-04-02T12:27:21;102431.38;;;9.45;54.07
65758;BME280;52495;52.208;5.158;2023-04-02T12:29:52;102436.78;;;9.65;53.82
65758;BME280;52495;52.208;5.158;2023-04-02T12:32:24;102439.38;;;9.65;53.73
65758;BME280;52495;52.208;5.158;2023-04-02T12:34:52;102433.28;;;9.60;54.83
65758;BME280;52495;52.208;5.158;2023-04-02T12:37:22;102436.78;;;9.65;54.99
65758;BME280;52495;52.208;5.158;2023-04-02T12:39:56;102432.47;;;9.65;54.18
65758;BME280;52495;52.208;5.158;2023-04-02T12:42:31;102450.75;;;9.82;54.10
65758;BME280;52495;52.208;5.158;2023-04-02T12:44:58;102435.41;;;9.93;54.11
65758;BME280;52495;52.208;5.158;2023-04-02T12:47:27;102443.16;;;9.95;53.78
65758;BME280;52495;52.208;5.158;2023-04-02T12:49:55;102443.94;;;9.89;53.32
65758;BME280;52495;52.208;5.158;2023-04-02T12:52:25;102437.94;;;9.90;53.05
65758;BME280;52495;52.208;5.158;2023-04-02T12:54:55;102456.03;;;9.95;51.89
65758;BME280;52495;52.208;5.158;2023-04-02T12:57:32;102450.06;;;9.97;53.23
65758;BME280;52495;52.208;5.158;2023-04-02T13:00:02;102443.94;;;9.91;53.35
65758;BME280;52495;52.208;5.158;2023-04-02T13:02:42;102448.38;;;10.02;53.52
65758;BME280;52495;52.208;5.158;2023-04-02T13:05:10;102458.84;;;10.13;54.06
65758;BME280;52495;52.208;5.158;2023-04-02T13:07:37;102450.31;;;10.22;53.52
65758;BME280;52495;52.208;5.158;2023-04-02T13:10:22;102461.72;;;10.38;51.20
65758;BME280;52495;52.208;5.158;2023-04-02T13:12:53;102459.81;;;10.22;52.69
65758;BME280;52495;52.208;5.158;2023-04-02T13:15:23;102458.91;;;10.20;53.42
65758;BME280;52495;52.208;5.158;2023-04-02T13:18:05;102457.28;;;10.31;53.43
65758;BME280;52495;52.208;5.158;2023-04-02T13:20:35;102457.97;;;10.13;53.00
65758;BME280;52495;52.208;5.158;2023-04-02T13:23:22;102464.88;;;10.14;53.89
65758;BME280;52495;52.208;5.158;2023-04-02T13:25:50;102465.78;;;10.19;53.97
65758;BME280;52495;52.208;5.158;2023-04-02T13:28:17;102453.75;;;10.20;54.10
65758;BME280;52495;52.208;5.158;2023-04-02T13:30:45;102454.91;;;10.46;53.07
65758;BME280;52495;52.208;5.158;2023-04-02T13:33:14;102460.97;;;10.52;51.04
65758;BME280;52495;52.208;5.158;2023-04-02T13:35:41;102455.00;;;10.56;52.27